createdAt,value
2023-02-06T00:00:19.713Z,12.18
2023-02-06T00:01:22.717Z,14.62
2023-02-06T00:02:25.754Z,13.16
2023-02-06T00:03:28.554Z,15.48
2023-02-06T00:04:31.626Z,15.32
2023-02-06T00:05:34.742Z,17.58
2023-02-06T00:06:37.506Z,18.43
2023-02-06T00:07:40.595Z,16.91
2023-02-06T00:08:43.252Z,15.19
2023-02-06T00:09:45.810Z,13.38
2023-02-06T00:10:48.764Z,15.06
2023-02-06T00:11:51.634Z,15.56
2023-02-06T00:12:54.952Z,14.22
2023-02-06T00:13:57.712Z,14.16
2023-02-06T00:15:00.294Z,19.95
2023-02-06T00:16:02.930Z,26.50
2023-02-06T00:17:05.528Z,17.62
2023-02-06T00:18:08.374Z,19.14
2023-02-06T00:19:11.263Z,20.82
2023-02-06T00:20:14.407Z,20.49
2023-02-06T00:21:17.414Z,19.03
2023-02-06T00:22:20.203Z,18.29
2023-02-06T00:23:22.884Z,21.92
2023-02-06T00:24:25.689Z,17.06
2023-02-06T00:25:28.392Z,18.75
2023-02-06T00:26:31.418Z,15.85
2023-02-06T00:27:34.553Z,14.14
2023-02-06T00:28:37.635Z,18.02
2023-02-06T00:29:40.324Z,16.92
2023-02-06T00:30:43.361Z,18.41
2023-02-06T00:31:46.041Z,19.02
2023-02-06T00:32:48.797Z,15.90
2023-02-06T00:33:52.141Z,15.63
2023-02-06T00:34:55.230Z,17.12
2023-02-06T00:35:57.775Z,15.07
2023-02-06T00:37:00.600Z,16.03
2023-02-06T00:38:03.339Z,16.46
2023-02-06T00:39:05.908Z,15.12
2023-02-06T00:40:08.684Z,16.92
2023-02-06T00:41:11.712Z,18.76
2023-02-06T00:42:14.909Z,19.69
2023-02-06T00:43:17.930Z,17.25
2023-02-06T00:44:20.597Z,16.92
2023-02-06T00:45:23.646Z,18.47
2023-02-06T00:46:26.436Z,19.48
2023-02-06T00:47:29.105Z,18.16
2023-02-06T00:48:31.901Z,18.96
2023-02-06T00:49:34.565Z,19.28
2023-02-06T00:50:37.342Z,18.56
2023-02-06T00:51:40.159Z,19.21
2023-02-06T00:52:42.671Z,16.42
2023-02-06T00:53:45.658Z,17.59
2023-02-06T00:54:48.304Z,17.01
2023-02-06T00:55:51.259Z,15.55
2023-02-06T00:56:54.176Z,17.38
2023-02-06T00:57:56.867Z,16.46
2023-02-06T00:58:59.557Z,17.22
2023-02-06T01:00:02.357Z,20.17
2023-02-06T01:01:05.419Z,15.93
2023-02-06T01:02:08.194Z,19.18
2023-02-06T01:03:10.895Z,18.92
2023-02-06T01:04:13.839Z,20.49
2023-02-06T01:05:17.063Z,16.84
2023-02-06T01:06:20.234Z,22.28
2023-02-06T01:07:23.013Z,16.62
2023-02-06T01:08:25.855Z,14.68
2023-02-06T01:09:28.754Z,17.57
2023-02-06T01:10:31.420Z,22.92
2023-02-06T01:11:34.085Z,14.19
2023-02-06T01:12:36.761Z,20.77
2023-02-06T01:13:39.433Z,17.73
2023-02-06T01:14:42.824Z,13.34
2023-02-06T01:15:46.155Z,15.90
2023-02-06T01:16:49.071Z,16.05
2023-02-06T01:17:51.826Z,16.95
2023-02-06T01:18:54.470Z,20.57
2023-02-06T01:19:57.565Z,14.46
2023-02-06T01:21:00.649Z,17.58
2023-02-06T01:22:03.454Z,16.10
2023-02-06T01:23:06.119Z,14.10
2023-02-06T01:24:09.107Z,13.74
2023-02-06T01:25:11.973Z,19.24
2023-02-06T01:26:15.124Z,19.61
2023-02-06T01:27:18.639Z,14.55
2023-02-06T01:28:21.626Z,14.28
2023-02-06T01:29:24.385Z,15.05
2023-02-06T01:30:27.203Z,14.51
2023-02-06T01:31:30.656Z,14.40
2023-02-06T01:32:33.831Z,19.56
2023-02-06T01:33:36.485Z,16.25
2023-02-06T01:34:38.980Z,15.25
2023-02-06T01:35:41.937Z,13.78
2023-02-06T01:36:44.902Z,13.47
2023-02-06T01:37:47.870Z,13.70
2023-02-06T01:38:50.592Z,16.53
2023-02-06T01:39:53.717Z,15.22
2023-02-06T01:40:56.617Z,13.78
2023-02-06T01:41:59.570Z,12.59
2023-02-06T01:43:02.373Z,12.62
2023-02-06T01:44:05.162Z,13.46
2023-02-06T01:45:07.818Z,12.62
2023-02-06T01:46:10.560Z,14.11
2023-02-06T01:47:13.367Z,15.45
2023-02-06T01:48:16.308Z,13.33
2023-02-06T01:49:19.119Z,11.35
2023-02-06T01:50:22.163Z,16.25
2023-02-06T01:51:25.032Z,12.74
2023-02-06T01:52:27.624Z,13.99
2023-02-06T01:53:30.505Z,12.81
2023-02-06T01:54:33.246Z,14.28
2023-02-06T01:55:36.109Z,13.81
2023-02-06T01:56:39.198Z,14.08
2023-02-06T01:57:42.303Z,18.41
2023-02-06T01:58:45.263Z,13.27
2023-02-06T01:59:47.854Z,13.00
2023-02-06T02:00:50.614Z,12.22
2023-02-06T02:01:53.842Z,11.97
2023-02-06T02:02:56.761Z,13.78
2023-02-06T02:03:59.551Z,16.07
2023-02-06T02:05:02.217Z,16.49
2023-02-06T02:06:05.014Z,16.13
2023-02-06T02:07:07.946Z,17.87
2023-02-06T02:08:11.069Z,13.95
2023-02-06T02:09:14.419Z,15.92
2023-02-06T02:10:17.296Z,14.22
2023-02-06T02:11:20.064Z,15.30
2023-02-06T02:12:22.938Z,14.78
2023-02-06T02:13:25.634Z,15.63
2023-02-06T02:14:29.211Z,15.74
2023-02-06T02:15:31.896Z,15.75
2023-02-06T02:16:34.617Z,17.97
2023-02-06T02:17:37.516Z,17.58
2023-02-06T02:18:40.334Z,16.58
2023-02-06T02:19:43.196Z,16.67
2023-02-06T02:20:45.763Z,19.32
2023-02-06T02:21:48.706Z,17.35
2023-02-06T02:22:51.799Z,15.79
2023-02-06T02:23:54.998Z,15.78
2023-02-06T02:24:57.665Z,16.12
2023-02-06T02:26:00.318Z,11.78
2023-02-06T02:27:03.112Z,11.24
2023-02-06T02:28:05.995Z,12.53
2023-02-06T02:29:08.545Z,12.50
2023-02-06T02:30:11.652Z,15.37
2023-02-06T02:31:14.469Z,10.79
2023-02-06T02:32:17.258Z,13.43
2023-02-06T02:33:20.236Z,14.14
2023-02-06T02:34:23.240Z,14.33
2023-02-06T02:35:26.497Z,15.81
2023-02-06T02:36:29.107Z,14.62
2023-02-06T02:37:31.660Z,15.55
2023-02-06T02:38:34.224Z,15.44
2023-02-06T02:39:37.074Z,15.91
2023-02-06T02:40:40.052Z,14.09
2023-02-06T02:41:42.742Z,14.77
2023-02-06T02:42:45.420Z,13.27
2023-02-06T02:43:47.987Z,14.48
2023-02-06T02:44:50.863Z,12.82
2023-02-06T02:45:53.650Z,12.69
2023-02-06T02:46:56.519Z,16.73
2023-02-06T02:47:59.244Z,17.63
2023-02-06T02:49:02.169Z,14.91
2023-02-06T02:50:04.994Z,12.06
2023-02-06T02:51:07.866Z,14.41
2023-02-06T02:52:10.576Z,13.52
2023-02-06T02:53:13.128Z,15.49
2023-02-06T02:54:16.017Z,12.54
2023-02-06T02:55:18.689Z,14.03
2023-02-06T02:56:21.271Z,17.30
2023-02-06T02:57:29.398Z,12.98
2023-02-06T02:58:32.094Z,13.82
2023-02-06T02:59:34.994Z,14.48
2023-02-06T03:00:37.984Z,13.22
2023-02-06T03:01:41.141Z,12.85
2023-02-06T03:02:44.202Z,11.89
2023-02-06T03:03:47.376Z,10.26
2023-02-06T03:04:50.333Z,14.25
2023-02-06T03:05:53.355Z,13.62
2023-02-06T03:06:56.309Z,14.12
2023-02-06T03:07:59.292Z,11.49
2023-02-06T03:09:02.166Z,14.33
2023-02-06T03:10:05.156Z,13.48
2023-02-06T03:11:08.137Z,15.33
2023-02-06T03:12:11.096Z,15.72
2023-02-06T03:13:13.981Z,11.73
2023-02-06T03:14:16.844Z,14.05
2023-02-06T03:15:19.828Z,16.11
2023-02-06T03:16:22.774Z,15.98
2023-02-06T03:17:25.793Z,12.93
2023-02-06T03:18:28.963Z,15.24
2023-02-06T03:19:32.149Z,12.25
2023-02-06T03:20:35.016Z,14.76
2023-02-06T03:21:38.098Z,15.73
2023-02-06T03:22:41.830Z,14.19
2023-02-06T03:23:44.754Z,17.12
2023-02-06T03:24:48.147Z,15.26
2023-02-06T03:25:51.131Z,11.37
2023-02-06T03:26:54.053Z,13.04
2023-02-06T03:27:57.180Z,13.61
2023-02-06T03:29:00.473Z,13.62
2023-02-06T03:30:03.560Z,10.61
2023-02-06T03:31:06.522Z,15.40
2023-02-06T03:32:09.403Z,17.67
2023-02-06T03:33:12.592Z,14.38
2023-02-06T03:34:15.652Z,13.41
2023-02-06T03:35:18.435Z,12.32
2023-02-06T03:36:21.404Z,17.85
2023-02-06T03:37:24.285Z,16.26
2023-02-06T03:38:27.768Z,14.73
2023-02-06T03:39:30.641Z,14.78
2023-02-06T03:40:33.530Z,13.58
2023-02-06T03:41:36.508Z,12.28
2023-02-06T03:42:39.376Z,15.88
2023-02-06T03:43:42.455Z,10.85
2023-02-06T03:44:45.274Z,12.37
2023-02-06T03:45:48.051Z,11.66
2023-02-06T03:46:50.988Z,11.65
2023-02-06T03:47:53.844Z,17.12
2023-02-06T03:48:56.718Z,11.07
2023-02-06T03:49:59.591Z,12.33
2023-02-06T03:51:02.285Z,14.68
2023-02-06T03:52:05.041Z,15.43
2023-02-06T03:53:08.059Z,12.24
2023-02-06T03:54:11.180Z,15.01
2023-02-06T03:55:14.115Z,13.22
2023-02-06T03:56:16.958Z,15.28
2023-02-06T03:57:19.722Z,14.19
2023-02-06T03:58:24.509Z,14.85
2023-02-06T03:59:27.112Z,22.98
2023-02-06T04:00:29.878Z,14.25
2023-02-06T04:01:32.924Z,13.66
2023-02-06T04:02:35.876Z,12.45
2023-02-06T04:03:38.919Z,14.25
2023-02-06T04:04:42.224Z,13.76
2023-02-06T04:05:44.978Z,12.13
2023-02-06T04:06:48.057Z,11.94
2023-02-06T04:07:50.833Z,10.62
2023-02-06T04:08:53.723Z,9.13
2023-02-06T04:09:57.115Z,10.31
2023-02-06T04:11:00.112Z,10.91
2023-02-06T04:12:02.954Z,10.55
2023-02-06T04:13:05.819Z,13.42
2023-02-06T04:14:09.002Z,11.45
2023-02-06T04:15:12.079Z,10.73
2023-02-06T04:16:15.530Z,13.03
2023-02-06T04:17:36.124Z,10.64
2023-02-06T04:18:22.948Z,14.46
2023-02-06T04:19:25.621Z,12.94
2023-02-06T04:20:28.706Z,13.88
2023-02-06T04:21:31.474Z,16.98
2023-02-06T04:22:34.396Z,13.02
2023-02-06T04:23:37.221Z,14.47
2023-02-06T04:24:39.901Z,15.20
2023-02-06T04:25:43.077Z,14.22
2023-02-06T04:26:46.059Z,9.12
2023-02-06T04:27:49.166Z,11.26
2023-02-06T04:28:52.324Z,12.95
2023-02-06T04:29:54.990Z,13.53
2023-02-06T04:30:58.588Z,14.34
2023-02-06T04:32:01.452Z,14.73
2023-02-06T04:33:04.337Z,14.68
2023-02-06T04:34:07.196Z,11.54
2023-02-06T04:35:10.275Z,11.28
2023-02-06T04:36:13.045Z,16.33
2023-02-06T04:37:15.933Z,15.80
2023-02-06T04:38:18.698Z,16.67
2023-02-06T04:39:21.576Z,15.62
2023-02-06T04:40:24.852Z,14.35
2023-02-06T04:41:29.984Z,13.99
2023-02-06T04:42:33.132Z,15.51
2023-02-06T04:43:36.566Z,12.97
2023-02-06T04:44:39.522Z,15.07
2023-02-06T04:45:42.713Z,14.08
2023-02-06T04:46:45.788Z,17.67
2023-02-06T04:47:48.876Z,17.40
2023-02-06T04:48:52.053Z,18.52
2023-02-06T04:49:54.821Z,15.36
2023-02-06T04:50:58.931Z,14.38
2023-02-06T04:52:02.317Z,15.33
2023-02-06T04:53:05.717Z,16.27
2023-02-06T04:54:08.791Z,12.86
2023-02-06T04:55:12.093Z,15.45
2023-02-06T04:56:15.248Z,15.69
2023-02-06T04:57:18.591Z,16.15
2023-02-06T04:58:21.615Z,15.68
2023-02-06T04:59:24.934Z,16.10
2023-02-06T05:00:28.003Z,14.32
2023-02-06T05:01:31.004Z,12.18
2023-02-06T05:02:34.178Z,13.65
2023-02-06T05:03:37.251Z,14.99
2023-02-06T05:04:40.008Z,18.94
2023-02-06T05:05:42.980Z,17.77
2023-02-06T05:06:45.948Z,19.20
2023-02-06T05:07:48.804Z,16.33
2023-02-06T05:08:51.904Z,15.85
2023-02-06T05:09:55.172Z,20.15
2023-02-06T05:10:58.281Z,18.37
2023-02-06T05:12:01.391Z,16.01
2023-02-06T05:13:04.520Z,14.74
2023-02-06T05:14:07.705Z,17.41
2023-02-06T05:15:11.266Z,17.12
2023-02-06T05:16:14.618Z,18.38
2023-02-06T05:17:17.659Z,15.84
2023-02-06T05:18:21.345Z,15.09
2023-02-06T05:19:24.420Z,15.70
2023-02-06T05:20:27.616Z,15.59
2023-02-06T05:21:30.972Z,16.67
2023-02-06T05:22:34.087Z,18.65
2023-02-06T05:23:37.452Z,14.36
2023-02-06T05:24:40.651Z,16.71
2023-02-06T05:25:43.831Z,16.68
2023-02-06T05:26:46.701Z,16.02
2023-02-06T05:27:49.577Z,19.45
2023-02-06T05:28:53.070Z,15.58
2023-02-06T05:29:56.030Z,13.66
2023-02-06T05:30:58.865Z,16.72
2023-02-06T05:32:01.991Z,16.49
2023-02-06T05:33:04.760Z,16.32
2023-02-06T05:34:07.841Z,15.98
2023-02-06T05:35:10.713Z,15.02
2023-02-06T05:36:13.693Z,15.49
2023-02-06T05:37:16.665Z,14.77
2023-02-06T05:38:19.440Z,18.61
2023-02-06T05:39:22.312Z,16.79
2023-02-06T05:40:25.196Z,16.57
2023-02-06T05:41:28.079Z,15.19
2023-02-06T05:42:31.457Z,15.68
2023-02-06T05:43:34.652Z,18.17
2023-02-06T05:44:38.240Z,16.65
2023-02-06T05:45:41.455Z,16.53
2023-02-06T05:46:44.493Z,18.49
2023-02-06T05:47:47.669Z,20.19
2023-02-06T05:48:50.749Z,15.75
2023-02-06T05:49:54.249Z,14.61
2023-02-06T05:50:57.340Z,14.75
2023-02-06T05:52:00.594Z,17.47
2023-02-06T05:53:03.589Z,17.85
2023-02-06T05:54:06.553Z,15.00
2023-02-06T05:55:10.065Z,13.32
2023-02-06T05:56:13.037Z,16.91
2023-02-06T05:57:15.915Z,19.08
2023-02-06T05:58:18.979Z,18.72
2023-02-06T05:59:22.053Z,19.58
2023-02-06T06:00:25.746Z,18.72
2023-02-06T06:01:28.729Z,19.38
2023-02-06T06:02:32.020Z,16.71
2023-02-06T06:03:35.280Z,22.55
2023-02-06T06:04:38.344Z,21.00
2023-02-06T06:05:41.657Z,19.92
2023-02-06T06:06:44.758Z,20.87
2023-02-06T06:07:47.927Z,18.44
2023-02-06T06:08:50.818Z,20.34
2023-02-06T06:09:53.880Z,18.96
2023-02-06T06:10:57.376Z,16.08
2023-02-06T06:12:00.339Z,18.72
2023-02-06T06:13:03.527Z,15.10
2023-02-06T06:14:06.502Z,15.39
2023-02-06T06:15:09.598Z,16.29
2023-02-06T06:16:12.743Z,17.55
2023-02-06T06:17:15.850Z,22.14
2023-02-06T06:18:18.927Z,17.09
2023-02-06T06:19:21.906Z,16.12
2023-02-06T06:20:24.980Z,16.10
2023-02-06T06:21:28.291Z,16.98
2023-02-06T06:22:31.138Z,13.03
2023-02-06T06:23:34.320Z,15.90
2023-02-06T06:24:36.984Z,20.69
2023-02-06T06:25:39.978Z,20.02
2023-02-06T06:26:43.259Z,15.93
2023-02-06T06:27:46.557Z,16.38
2023-02-06T06:28:49.710Z,20.92
2023-02-06T06:29:52.767Z,18.21
2023-02-06T06:30:56.173Z,17.94
2023-02-06T06:31:59.309Z,16.71
2023-02-06T06:33:02.271Z,19.65
2023-02-06T06:34:05.315Z,22.76
2023-02-06T06:35:08.333Z,19.55
2023-02-06T06:36:14.248Z,19.34
2023-02-06T06:37:16.200Z,19.24
2023-02-06T06:38:19.176Z,19.92
2023-02-06T06:39:22.258Z,20.56
2023-02-06T06:40:25.261Z,18.52
2023-02-06T06:41:28.331Z,20.42
2023-02-06T06:42:31.206Z,21.31
2023-02-06T06:43:34.258Z,18.65
2023-02-06T06:44:37.045Z,20.06
2023-02-06T06:45:40.299Z,17.64
2023-02-06T06:46:43.392Z,18.85
2023-02-06T06:47:46.495Z,20.54
2023-02-06T06:48:49.796Z,22.75
2023-02-06T06:49:52.697Z,23.53
2023-02-06T06:50:55.843Z,18.93
2023-02-06T06:51:58.594Z,20.71
2023-02-06T06:53:01.510Z,17.35
2023-02-06T06:54:04.756Z,18.42
2023-02-06T06:55:07.528Z,19.89
2023-02-06T06:56:10.306Z,18.63
2023-02-06T06:57:13.167Z,19.04
2023-02-06T06:58:16.395Z,18.28
2023-02-06T06:59:19.526Z,23.34
2023-02-06T07:00:22.717Z,24.22
2023-02-06T07:01:25.743Z,18.60
2023-02-06T07:02:28.870Z,20.81
2023-02-06T07:03:32.067Z,19.10
2023-02-06T07:04:35.263Z,18.35
2023-02-06T07:05:38.589Z,19.45
2023-02-06T07:06:41.719Z,20.82
2023-02-06T07:07:44.895Z,18.67
2023-02-06T07:08:47.872Z,21.45
2023-02-06T07:09:50.792Z,21.54
2023-02-06T07:10:54.025Z,20.96
2023-02-06T07:11:57.113Z,18.28
2023-02-06T07:13:00.281Z,15.79
2023-02-06T07:14:03.477Z,18.52
2023-02-06T07:15:25.912Z,19.28
2023-02-06T07:16:29.054Z,17.96
2023-02-06T07:17:31.751Z,17.27
2023-02-06T07:18:34.487Z,22.68
2023-02-06T07:19:37.399Z,19.57
2023-02-06T07:20:40.311Z,20.25
2023-02-06T07:21:43.391Z,18.50
2023-02-06T07:22:46.233Z,17.14
2023-02-06T07:23:49.130Z,19.61
2023-02-06T07:24:54.345Z,24.90
2023-02-06T07:25:56.492Z,18.20
2023-02-06T07:26:59.266Z,19.85
2023-02-06T07:28:01.976Z,22.08
2023-02-06T07:29:04.811Z,19.68
2023-02-06T07:30:07.468Z,20.37
2023-02-06T07:31:10.347Z,21.01
2023-02-06T07:32:13.315Z,18.72
2023-02-06T07:33:16.093Z,19.81
2023-02-06T07:34:18.758Z,17.22
2023-02-06T07:35:21.737Z,19.15
2023-02-06T07:36:24.824Z,17.72
2023-02-06T07:37:27.599Z,18.38
2023-02-06T07:38:30.287Z,17.11
2023-02-06T07:39:33.135Z,16.28
2023-02-06T07:40:44.791Z,17.45
2023-02-06T07:41:40.417Z,20.17
2023-02-06T07:42:43.111Z,20.80
2023-02-06T07:43:46.170Z,20.08
2023-02-06T07:44:48.857Z,19.15
2023-02-06T07:45:51.730Z,19.79
2023-02-06T07:46:54.405Z,25.96
2023-02-06T07:47:57.169Z,20.99
2023-02-06T07:49:00.140Z,20.92
2023-02-06T07:50:02.926Z,19.77
2023-02-06T07:51:05.688Z,23.24
2023-02-06T07:52:08.661Z,18.18
2023-02-06T07:53:11.339Z,18.11
2023-02-06T07:54:13.998Z,16.78
2023-02-06T07:55:16.778Z,17.85
2023-02-06T07:56:19.445Z,19.45
2023-02-06T07:57:22.120Z,21.08
2023-02-06T07:58:24.896Z,17.48
2023-02-06T07:59:27.673Z,19.22
2023-02-06T08:00:30.542Z,19.70
2023-02-06T08:01:33.299Z,17.95
2023-02-06T08:02:36.381Z,21.45
2023-02-06T08:03:39.152Z,18.36
2023-02-06T08:04:42.256Z,18.39
2023-02-06T08:05:44.896Z,25.55
2023-02-06T08:06:47.676Z,21.61
2023-02-06T08:07:50.558Z,20.15
2023-02-06T08:08:53.324Z,21.95
2023-02-06T08:09:56.190Z,22.73
2023-02-06T08:10:58.858Z,23.99
2023-02-06T08:12:01.750Z,18.78
2023-02-06T08:13:04.512Z,20.79
2023-02-06T08:14:07.178Z,20.12
2023-02-06T08:15:10.144Z,20.62
2023-02-06T08:16:13.192Z,21.73
2023-02-06T08:17:17.481Z,23.09
2023-02-06T08:18:20.314Z,21.08
2023-02-06T08:19:23.205Z,20.84
2023-02-06T08:20:25.866Z,19.42
2023-02-06T08:21:28.641Z,17.48
2023-02-06T08:22:31.413Z,21.95
2023-02-06T08:23:34.292Z,17.67
2023-02-06T08:24:36.964Z,20.44
2023-02-06T08:25:40.042Z,21.00
2023-02-06T08:26:42.703Z,20.04
2023-02-06T08:27:45.431Z,21.14
2023-02-06T08:28:48.276Z,19.59
2023-02-06T08:29:51.348Z,21.02
2023-02-06T08:30:54.068Z,22.79
2023-02-06T08:31:56.965Z,22.32
2023-02-06T08:32:59.888Z,18.82
2023-02-06T08:34:02.714Z,22.03
2023-02-06T08:35:05.495Z,20.15
2023-02-06T08:36:08.369Z,21.37
2023-02-06T08:37:11.132Z,20.02
2023-02-06T08:38:14.015Z,22.04
2023-02-06T08:39:16.779Z,23.67
2023-02-06T08:40:19.481Z,22.82
2023-02-06T08:41:22.318Z,21.73
2023-02-06T08:42:25.005Z,19.65
2023-02-06T08:43:27.817Z,19.62
2023-02-06T08:44:30.651Z,18.63
2023-02-06T08:45:33.721Z,20.75
2023-02-06T08:46:36.810Z,19.38
2023-02-06T08:47:39.500Z,23.62
2023-02-06T08:48:42.452Z,21.23
2023-02-06T08:49:45.338Z,20.58
2023-02-06T08:50:51.399Z,19.67
2023-02-06T08:51:54.187Z,20.72
2023-02-06T08:52:57.034Z,20.55
2023-02-06T08:53:59.915Z,16.01
2023-02-06T08:55:02.781Z,17.77
2023-02-06T08:56:05.655Z,19.39
2023-02-06T08:57:08.449Z,19.85
2023-02-06T08:58:11.207Z,23.07
2023-02-06T08:59:14.271Z,22.08
2023-02-06T09:00:17.481Z,19.24
2023-02-06T09:01:20.309Z,21.76
2023-02-06T09:02:23.242Z,22.44
2023-02-06T09:03:25.977Z,20.85
2023-02-06T09:04:28.747Z,22.43
2023-02-06T09:05:31.614Z,22.52
2023-02-06T09:06:34.398Z,21.91
2023-02-06T09:07:37.173Z,22.32
2023-02-06T09:08:39.729Z,18.38
2023-02-06T09:09:42.502Z,24.24
2023-02-06T09:10:45.379Z,19.02
2023-02-06T09:11:48.259Z,21.91
2023-02-06T09:12:50.942Z,22.38
2023-02-06T09:13:54.009Z,20.21
2023-02-06T09:14:56.879Z,21.92
2023-02-06T09:15:59.719Z,20.81
2023-02-06T09:17:02.423Z,18.75
2023-02-06T09:18:05.329Z,23.70
2023-02-06T09:19:08.014Z,21.99
2023-02-06T09:20:10.959Z,24.16
2023-02-06T09:21:13.723Z,21.35
2023-02-06T09:22:16.504Z,18.40
2023-02-06T09:23:19.205Z,19.92
2023-02-06T09:24:22.032Z,23.05
2023-02-06T09:25:24.814Z,23.50
2023-02-06T09:26:27.621Z,21.05
2023-02-06T09:27:30.259Z,17.54
2023-02-06T09:28:32.944Z,18.05
2023-02-06T09:29:35.896Z,21.93
2023-02-06T09:30:38.838Z,23.82
2023-02-06T09:31:41.461Z,27.89
2023-02-06T09:32:44.687Z,21.74
2023-02-06T09:33:47.633Z,21.49
2023-02-06T09:34:50.496Z,20.92
2023-02-06T09:35:53.138Z,25.29
2023-02-06T09:36:55.812Z,19.58
2023-02-06T09:37:58.572Z,19.55
2023-02-06T09:39:01.246Z,26.79
2023-02-06T09:40:03.943Z,24.80
2023-02-06T09:41:06.596Z,20.17
2023-02-06T09:42:09.257Z,21.39
2023-02-06T09:43:12.229Z,18.06
2023-02-06T09:44:15.106Z,24.84
2023-02-06T09:45:17.981Z,24.02
2023-02-06T09:46:20.844Z,22.77
2023-02-06T09:47:23.533Z,19.28
2023-02-06T09:48:26.407Z,20.26
2023-02-06T09:49:29.389Z,26.22
2023-02-06T09:50:31.949Z,19.92
2023-02-06T09:51:34.610Z,21.81
2023-02-06T09:52:37.388Z,26.31
2023-02-06T09:53:40.277Z,25.71
2023-02-06T09:54:42.775Z,23.58
2023-02-06T09:55:57.792Z,20.71
2023-02-06T09:57:00.880Z,22.96
2023-02-06T09:58:03.881Z,23.95
2023-02-06T09:59:06.932Z,23.92
2023-02-06T10:00:10.930Z,24.08
2023-02-06T10:01:13.709Z,21.24
2023-02-06T10:02:16.679Z,22.24
2023-02-06T10:03:19.857Z,21.40
2023-02-06T10:04:22.553Z,24.49
2023-02-06T10:05:25.370Z,25.57
2023-02-06T10:06:28.177Z,25.91
2023-02-06T10:07:30.950Z,27.01
2023-02-06T10:08:34.548Z,23.03
2023-02-06T10:09:37.407Z,25.58
2023-02-06T10:10:40.294Z,21.99
2023-02-06T10:11:43.472Z,22.28
2023-02-06T10:12:46.441Z,24.21
2023-02-06T10:13:49.328Z,24.01
2023-02-06T10:14:52.211Z,25.48
2023-02-06T10:15:54.771Z,23.56
2023-02-06T10:16:57.634Z,23.17
2023-02-06T10:18:00.620Z,23.95
2023-02-06T10:19:03.626Z,23.22
2023-02-06T10:20:06.673Z,21.15
2023-02-06T10:21:09.354Z,21.32
2023-02-06T10:22:12.434Z,23.15
2023-02-06T10:23:15.536Z,23.64
2023-02-06T10:24:18.577Z,21.88
2023-02-06T10:25:21.581Z,23.10
2023-02-06T10:26:24.443Z,26.06
2023-02-06T10:27:27.519Z,23.94
2023-02-06T10:28:30.285Z,24.67
2023-02-06T10:29:32.970Z,23.35
2023-02-06T10:30:35.633Z,23.27
2023-02-06T10:31:38.598Z,23.44
2023-02-06T10:32:41.272Z,26.95
2023-02-06T10:33:44.053Z,25.00
2023-02-06T10:34:47.038Z,23.89
2023-02-06T10:35:50.119Z,24.73
2023-02-06T10:36:52.815Z,20.47
2023-02-06T10:37:55.777Z,24.32
2023-02-06T10:38:58.938Z,21.52
2023-02-06T10:40:02.014Z,18.54
2023-02-06T10:41:04.914Z,21.75
2023-02-06T10:42:08.109Z,23.25
2023-02-06T10:43:11.058Z,26.09
2023-02-06T10:44:13.936Z,24.94
2023-02-06T10:45:20.462Z,19.60
2023-02-06T10:46:21.972Z,21.65
2023-02-06T10:47:25.429Z,23.75
2023-02-06T10:48:28.609Z,30.48
2023-02-06T10:49:31.264Z,24.35
2023-02-06T10:50:34.049Z,24.88
2023-02-06T10:51:36.819Z,26.22
2023-02-06T10:52:39.636Z,21.15
2023-02-06T10:53:42.453Z,24.66
2023-02-06T10:54:45.641Z,21.12
2023-02-06T10:55:49.348Z,20.42
2023-02-06T10:56:52.660Z,22.28
2023-02-06T10:57:56.129Z,20.92
2023-02-06T10:58:59.077Z,23.67
2023-02-06T11:00:02.066Z,22.81
2023-02-06T11:01:13.919Z,21.99
2023-02-06T11:02:09.621Z,23.33
2023-02-06T11:03:12.220Z,18.43
2023-02-06T11:04:15.399Z,19.70
2023-02-06T11:05:18.376Z,24.79
2023-02-06T11:06:20.963Z,25.04
2023-02-06T11:07:23.626Z,23.45
2023-02-06T11:08:26.395Z,26.02
2023-02-06T11:09:29.162Z,23.59
2023-02-06T11:10:31.932Z,23.11
2023-02-06T11:11:35.017Z,20.72
2023-02-06T11:12:38.302Z,21.82
2023-02-06T11:13:41.184Z,21.78
2023-02-06T11:14:44.035Z,19.78
2023-02-06T11:15:47.115Z,20.38
2023-02-06T11:16:49.897Z,22.68
2023-02-06T11:17:52.671Z,23.72
2023-02-06T11:18:55.540Z,23.27
2023-02-06T11:19:58.618Z,20.68
2023-02-06T11:21:02.085Z,23.52
2023-02-06T11:22:05.194Z,21.35
2023-02-06T11:23:08.267Z,25.55
2023-02-06T11:24:11.332Z,24.75
2023-02-06T11:25:14.424Z,23.12
2023-02-06T11:26:17.399Z,23.49
2023-02-06T11:27:20.496Z,25.60
2023-02-06T11:28:23.440Z,24.13
2023-02-06T11:29:26.341Z,23.12
2023-02-06T11:30:29.052Z,23.23
2023-02-06T11:31:31.942Z,21.11
2023-02-06T11:32:35.077Z,20.75
2023-02-06T11:33:38.342Z,20.05
2023-02-06T11:34:41.399Z,20.36
2023-02-06T11:35:44.395Z,21.04
2023-02-06T11:36:47.074Z,21.77
2023-02-06T11:37:49.765Z,21.97
2023-02-06T11:38:52.715Z,25.09
2023-02-06T11:39:55.401Z,21.02
2023-02-06T11:40:58.056Z,23.73
2023-02-06T11:42:01.147Z,24.52
2023-02-06T11:43:03.920Z,23.25
2023-02-06T11:44:06.892Z,24.74
2023-02-06T11:45:09.661Z,23.91
2023-02-06T11:46:12.619Z,25.92
2023-02-06T11:47:15.612Z,25.54
2023-02-06T11:48:18.487Z,27.11
2023-02-06T11:49:21.355Z,23.83
2023-02-06T11:50:24.441Z,22.68
2023-02-06T11:51:27.528Z,18.80
2023-02-06T11:52:30.786Z,21.70
2023-02-06T11:53:33.797Z,24.95
2023-02-06T11:54:36.757Z,26.62
2023-02-06T11:55:40.077Z,23.84
2023-02-06T11:56:43.333Z,23.21
2023-02-06T11:57:46.300Z,24.60
2023-02-06T11:58:49.188Z,26.89
2023-02-06T11:59:52.164Z,27.16
2023-02-06T12:00:55.084Z,23.33
2023-02-06T12:01:57.872Z,24.82
2023-02-06T12:03:00.474Z,24.62
2023-02-06T12:04:03.142Z,20.26
2023-02-06T12:05:05.824Z,22.02
2023-02-06T12:06:08.564Z,21.08
2023-02-06T12:07:11.558Z,22.75
2023-02-06T12:08:14.340Z,27.49
2023-02-06T12:09:17.215Z,22.80
2023-02-06T12:10:20.106Z,23.68
2023-02-06T12:11:23.194Z,22.46
2023-02-06T12:12:26.153Z,22.71
2023-02-06T12:13:29.217Z,23.61
2023-02-06T12:14:32.213Z,19.52
2023-02-06T12:15:45.816Z,24.38
2023-02-06T12:16:39.675Z,23.10
2023-02-06T12:17:42.596Z,23.86
2023-02-06T12:18:45.275Z,25.93
2023-02-06T12:19:47.885Z,26.13
2023-02-06T12:20:50.705Z,25.95
2023-02-06T12:21:53.376Z,29.45
2023-02-06T12:22:55.859Z,26.18
2023-02-06T12:23:58.343Z,24.92
2023-02-06T12:25:00.877Z,28.85
2023-02-06T12:26:03.402Z,23.57
2023-02-06T12:27:05.811Z,26.22
2023-02-06T12:28:08.333Z,25.17
2023-02-06T12:29:10.818Z,23.61
2023-02-06T12:30:16.235Z,25.18
2023-02-06T12:31:19.118Z,26.83
2023-02-06T12:32:21.733Z,27.40
2023-02-06T12:33:24.153Z,26.42
2023-02-06T12:34:26.570Z,26.88
2023-02-06T12:35:29.019Z,26.53
2023-02-06T12:36:31.490Z,22.92
2023-02-06T12:37:33.812Z,21.35
2023-02-06T12:38:36.028Z,19.66
2023-02-06T12:39:38.226Z,22.30
2023-02-06T12:40:40.471Z,25.20
2023-02-06T12:41:42.754Z,22.78
2023-02-06T12:42:45.000Z,21.31
2023-02-06T12:43:47.172Z,21.15
2023-02-06T12:44:49.437Z,22.37
2023-02-06T12:45:51.745Z,22.07
2023-02-06T12:46:53.954Z,23.32
2023-02-06T12:47:56.194Z,23.62
2023-02-06T12:48:58.435Z,22.48
2023-02-06T12:50:00.800Z,23.91
2023-02-06T12:51:03.102Z,22.49
2023-02-06T12:52:05.311Z,25.32
2023-02-06T12:53:07.564Z,25.67
2023-02-06T12:54:09.809Z,23.68
2023-02-06T12:55:12.014Z,29.72
2023-02-06T12:56:14.177Z,24.75
2023-02-06T12:57:16.420Z,24.67
2023-02-06T12:58:18.847Z,23.32
2023-02-06T12:59:21.328Z,18.37
2023-02-06T13:00:23.894Z,24.32
2023-02-06T13:01:32.109Z,22.97
2023-02-06T13:02:30.654Z,25.65
2023-02-06T13:03:33.284Z,25.35
2023-02-06T13:04:35.713Z,23.38
2023-02-06T13:05:38.595Z,25.29
2023-02-06T13:06:41.299Z,23.06
2023-02-06T13:07:49.303Z,23.78
2023-02-06T13:08:47.821Z,23.28
2023-02-06T13:09:50.088Z,22.12
2023-02-06T13:10:52.353Z,23.36
2023-02-06T13:11:54.563Z,25.77
2023-02-06T13:12:56.801Z,25.72
2023-02-06T13:13:59.020Z,24.51
2023-02-06T13:15:01.346Z,21.32
2023-02-06T13:16:03.839Z,25.52
2023-02-06T13:17:06.120Z,27.02
2023-02-06T13:18:08.524Z,23.48
2023-02-06T13:19:10.944Z,21.19
2023-02-06T13:20:13.405Z,23.38
2023-02-06T13:21:16.076Z,27.97
2023-02-06T13:22:18.615Z,25.01
2023-02-06T13:23:21.060Z,22.33
2023-02-06T13:24:23.573Z,25.19
2023-02-06T13:25:26.013Z,22.85
2023-02-06T13:26:28.382Z,21.86
2023-02-06T13:27:30.877Z,21.95
2023-02-06T13:28:33.345Z,20.72
2023-02-06T13:29:35.852Z,20.75
2023-02-06T13:30:38.333Z,21.79